sensor_id;sensor_type;location;lat;lon;timestamp;P1;durP1;ratioP1;P2;durP2;ratioP2
37047;SDS011;23227;48.780;9.210;2022-08-19T00:01:24;16.83;;;10.38;;
37047;SDS011;23227;48.780;9.210;2022-08-19T00:04:31;14.30;;;9.30;;
37047;SDS011;23227;48.780;9.210;2022-08-19T00:07:39;13.87;;;10.20;;
37047;SDS011;23227;48.780;9.210;2022-08-19T00:10:43;20.60;;;10.23;;
37047;SDS011;23227;48.780;9.210;2022-08-19T00:16:51;14.70;;;9.53;;
37047;SDS011;23227;48.780;9.210;2022-08-19T00:19:55;13.67;;;9.63;;
37047;SDS011;23227;48.780;9.210;2022-08-19T00:22:59;15.82;;;9.70;;
37047;SDS011;23227;48.780;9.210;2022-08-19T00:26:02;14.90;;;9.80;;
37047;SDS011;23227;48.780;9.210;2022-08-19T00:32:08;14.18;;;9.77;;
37047;SDS011;23227;48.780;9.210;2022-08-19T00:35:13;17.30;;;10.10;;
37047;SDS011;23227;48.780;9.210;2022-08-19T00:38:19;16.47;;;9.77;;
37047;SDS011;23227;48.780;9.210;2022-08-19T00:41:38;16.57;;;10.53;;
37047;SDS011;23227;48.780;9.210;2022-08-19T00:44:42;16.17;;;10.17;;
37047;SDS011;23227;48.780;9.210;2022-08-19T00:50:48;16.08;;;10.32;;
37047;SDS011;23227;48.780;9.210;2022-08-19T00:53:54;19.20;;;10.27;;
37047;SDS011;23227;48.780;9.210;2022-08-19T00:56:58;19.93;;;11.47;;
37047;SDS011;23227;48.780;9.210;2022-08-19T01:00:03;16.43;;;10.73;;
37047;SDS011;23227;48.780;9.210;2022-08-19T01:03:10;14.40;;;9.90;;
37047;SDS011;23227;48.780;9.210;2022-08-19T01:06:19;15.83;;;10.23;;
37047;SDS011;23227;48.780;9.210;2022-08-19T01:09:23;15.73;;;10.57;;
37047;SDS011;23227;48.780;9.210;2022-08-19T01:12:26;13.67;;;10.00;;
37047;SDS011;23227;48.780;9.210;2022-08-19T01:15:30;17.02;;;10.43;;
37047;SDS011;23227;48.780;9.210;2022-08-19T01:18:35;15.70;;;10.10;;
37047;SDS011;23227;48.780;9.210;2022-08-19T01:21:42;15.30;;;10.17;;
37047;SDS011;23227;48.780;9.210;2022-08-19T01:24:49;17.23;;;10.63;;
37047;SDS011;23227;48.780;9.210;2022-08-19T01:27:55;15.47;;;10.53;;
37047;SDS011;23227;48.780;9.210;2022-08-19T01:31:13;14.27;;;9.90;;
37047;SDS011;23227;48.780;9.210;2022-08-19T01:34:28;15.63;;;10.77;;
37047;SDS011;23227;48.780;9.210;2022-08-19T01:37:40;13.73;;;9.52;;
37047;SDS011;23227;48.780;9.210;2022-08-19T01:40:45;17.33;;;11.17;;
37047;SDS011;23227;48.780;9.210;2022-08-19T01:43:48;16.90;;;10.93;;
37047;SDS011;23227;48.780;9.210;2022-08-19T01:47:11;17.55;;;11.13;;
37047;SDS011;23227;48.780;9.210;2022-08-19T01:50:14;17.98;;;11.13;;
37047;SDS011;23227;48.780;9.210;2022-08-19T01:53:16;20.35;;;11.95;;
37047;SDS011;23227;48.780;9.210;2022-08-19T01:56:21;17.42;;;11.32;;
37047;SDS011;23227;48.780;9.210;2022-08-19T01:59:24;22.37;;;12.50;;
37047;SDS011;23227;48.780;9.210;2022-08-19T02:02:27;20.75;;;11.52;;
37047;SDS011;23227;48.780;9.210;2022-08-19T02:05:29;16.95;;;11.88;;
37047;SDS011;23227;48.780;9.210;2022-08-19T02:08:33;21.42;;;12.10;;
37047;SDS011;23227;48.780;9.210;2022-08-19T02:11:39;20.73;;;12.03;;
37047;SDS011;23227;48.780;9.210;2022-08-19T02:14:43;19.03;;;10.97;;
37047;SDS011;23227;48.780;9.210;2022-08-19T02:17:46;17.63;;;10.93;;
37047;SDS011;23227;48.780;9.210;2022-08-19T02:20:49;20.03;;;12.13;;
37047;SDS011;23227;48.780;9.210;2022-08-19T02:23:52;18.77;;;11.57;;
37047;SDS011;23227;48.780;9.210;2022-08-19T02:26:56;18.17;;;12.68;;
37047;SDS011;23227;48.780;9.210;2022-08-19T02:29:59;17.50;;;12.03;;
37047;SDS011;23227;48.780;9.210;2022-08-19T02:36:06;20.08;;;13.02;;
37047;SDS011;23227;48.780;9.210;2022-08-19T02:39:10;22.37;;;13.17;;
37047;SDS011;23227;48.780;9.210;2022-08-19T02:42:14;22.33;;;13.43;;
37047;SDS011;23227;48.780;9.210;2022-08-19T02:45:17;21.63;;;13.47;;
37047;SDS011;23227;48.780;9.210;2022-08-19T02:48:20;20.77;;;12.48;;
37047;SDS011;23227;48.780;9.210;2022-08-19T02:51:25;23.77;;;13.53;;
37047;SDS011;23227;48.780;9.210;2022-08-19T02:54:29;23.10;;;13.67;;
37047;SDS011;23227;48.780;9.210;2022-08-19T02:57:33;20.77;;;13.48;;
37047;SDS011;23227;48.780;9.210;2022-08-19T03:00:40;23.87;;;14.87;;
37047;SDS011;23227;48.780;9.210;2022-08-19T03:03:44;26.20;;;14.50;;
37047;SDS011;23227;48.780;9.210;2022-08-19T03:06:47;24.80;;;13.80;;
37047;SDS011;23227;48.780;9.210;2022-08-19T03:09:50;23.10;;;13.38;;
37047;SDS011;23227;48.780;9.210;2022-08-19T03:12:54;22.42;;;14.15;;
37047;SDS011;23227;48.780;9.210;2022-08-19T03:15:57;23.83;;;15.03;;
37047;SDS011;23227;48.780;9.210;2022-08-19T03:19:00;22.55;;;14.57;;
37047;SDS011;23227;48.780;9.210;2022-08-19T03:22:03;24.40;;;15.03;;
37047;SDS011;23227;48.780;9.210;2022-08-19T03:25:06;23.45;;;13.70;;
37047;SDS011;23227;48.780;9.210;2022-08-19T03:28:11;27.00;;;16.17;;
37047;SDS011;23227;48.780;9.210;2022-08-19T03:31:17;24.73;;;15.23;;
37047;SDS011;23227;48.780;9.210;2022-08-19T03:34:41;24.97;;;15.50;;
37047;SDS011;23227;48.780;9.210;2022-08-19T03:37:43;24.73;;;15.25;;
37047;SDS011;23227;48.780;9.210;2022-08-19T03:40:46;28.58;;;16.38;;
37047;SDS011;23227;48.780;9.210;2022-08-19T03:43:50;21.83;;;14.48;;
37047;SDS011;23227;48.780;9.210;2022-08-19T03:46:55;25.90;;;16.37;;
37047;SDS011;23227;48.780;9.210;2022-08-19T03:49:59;24.53;;;15.93;;
37047;SDS011;23227;48.780;9.210;2022-08-19T03:53:02;24.17;;;16.53;;
37047;SDS011;23227;48.780;9.210;2022-08-19T03:56:05;22.58;;;15.10;;
37047;SDS011;23227;48.780;9.210;2022-08-19T03:59:13;22.97;;;15.70;;
37047;SDS011;23227;48.780;9.210;2022-08-19T04:02:17;28.00;;;16.00;;
37047;SDS011;23227;48.780;9.210;2022-08-19T04:05:21;23.70;;;15.90;;
37047;SDS011;23227;48.780;9.210;2022-08-19T04:08:28;25.37;;;15.97;;
37047;SDS011;23227;48.780;9.210;2022-08-19T04:11:33;26.73;;;17.23;;
37047;SDS011;23227;48.780;9.210;2022-08-19T04:14:45;23.90;;;16.35;;
37047;SDS011;23227;48.780;9.210;2022-08-19T04:17:48;26.83;;;16.00;;
37047;SDS011;23227;48.780;9.210;2022-08-19T04:20:51;25.33;;;15.88;;
37047;SDS011;23227;48.780;9.210;2022-08-19T04:23:54;26.55;;;14.68;;
37047;SDS011;23227;48.780;9.210;2022-08-19T04:26:58;26.87;;;16.80;;
37047;SDS011;23227;48.780;9.210;2022-08-19T04:30:03;27.50;;;17.47;;
37047;SDS011;23227;48.780;9.210;2022-08-19T04:33:07;28.07;;;17.93;;
37047;SDS011;23227;48.780;9.210;2022-08-19T04:36:15;28.77;;;17.65;;
37047;SDS011;23227;48.780;9.210;2022-08-19T04:39:21;27.67;;;16.97;;
37047;SDS011;23227;48.780;9.210;2022-08-19T04:42:45;29.90;;;17.13;;
37047;SDS011;23227;48.780;9.210;2022-08-19T04:45:49;28.37;;;17.67;;
37047;SDS011;23227;48.780;9.210;2022-08-19T04:48:57;29.70;;;18.00;;
37047;SDS011;23227;48.780;9.210;2022-08-19T04:55:13;25.80;;;16.77;;
37047;SDS011;23227;48.780;9.210;2022-08-19T04:58:15;22.92;;;13.15;;
37047;SDS011;23227;48.780;9.210;2022-08-19T05:01:20;28.63;;;17.73;;
37047;SDS011;23227;48.780;9.210;2022-08-19T05:04:24;27.90;;;17.20;;
37047;SDS011;23227;48.780;9.210;2022-08-19T05:07:27;30.33;;;17.95;;
37047;SDS011;23227;48.780;9.210;2022-08-19T05:10:34;27.43;;;17.47;;
37047;SDS011;23227;48.780;9.210;2022-08-19T05:13:37;26.43;;;16.87;;
37047;SDS011;23227;48.780;9.210;2022-08-19T05:16:43;27.07;;;17.73;;
37047;SDS011;23227;48.780;9.210;2022-08-19T05:19:46;27.60;;;17.60;;
37047;SDS011;23227;48.780;9.210;2022-08-19T05:23:07;25.23;;;17.37;;
37047;SDS011;23227;48.780;9.210;2022-08-19T05:26:22;27.10;;;17.63;;
37047;SDS011;23227;48.780;9.210;2022-08-19T05:29:27;24.97;;;16.37;;
37047;SDS011;23227;48.780;9.210;2022-08-19T05:32:38;29.60;;;16.67;;
37047;SDS011;23227;48.780;9.210;2022-08-19T05:35:41;25.00;;;17.00;;
37047;SDS011;23227;48.780;9.210;2022-08-19T05:38:45;28.87;;;17.37;;
37047;SDS011;23227;48.780;9.210;2022-08-19T05:41:52;30.97;;;16.97;;
37047;SDS011;23227;48.780;9.210;2022-08-19T05:44:59;26.37;;;15.97;;
37047;SDS011;23227;48.780;9.210;2022-08-19T05:48:04;27.97;;;17.07;;
37047;SDS011;23227;48.780;9.210;2022-08-19T05:51:08;28.17;;;16.70;;
37047;SDS011;23227;48.780;9.210;2022-08-19T05:54:11;22.60;;;15.07;;
37047;SDS011;23227;48.780;9.210;2022-08-19T05:57:15;28.23;;;17.37;;
37047;SDS011;23227;48.780;9.210;2022-08-19T06:00:18;26.17;;;16.50;;
37047;SDS011;23227;48.780;9.210;2022-08-19T06:03:27;27.67;;;17.10;;
37047;SDS011;23227;48.780;9.210;2022-08-19T06:06:30;30.67;;;17.73;;
37047;SDS011;23227;48.780;9.210;2022-08-19T06:09:35;24.03;;;16.47;;
37047;SDS011;23227;48.780;9.210;2022-08-19T06:12:39;25.27;;;15.07;;
37047;SDS011;23227;48.780;9.210;2022-08-19T06:15:42;29.90;;;17.47;;
37047;SDS011;23227;48.780;9.210;2022-08-19T06:18:49;25.83;;;16.30;;
37047;SDS011;23227;48.780;9.210;2022-08-19T06:21:53;23.40;;;16.37;;
37047;SDS011;23227;48.780;9.210;2022-08-19T06:24:56;34.53;;;17.17;;
37047;SDS011;23227;48.780;9.210;2022-08-19T06:28:00;28.37;;;17.47;;
37047;SDS011;23227;48.780;9.210;2022-08-19T06:31:21;26.90;;;16.83;;
37047;SDS011;23227;48.780;9.210;2022-08-19T06:34:27;25.53;;;14.93;;
37047;SDS011;23227;48.780;9.210;2022-08-19T06:37:31;24.80;;;17.23;;
37047;SDS011;23227;48.780;9.210;2022-08-19T06:40:34;24.65;;;17.30;;
37047;SDS011;23227;48.780;9.210;2022-08-19T06:43:39;36.40;;;18.53;;
37047;SDS011;23227;48.780;9.210;2022-08-19T06:46:44;32.03;;;17.83;;
37047;SDS011;23227;48.780;9.210;2022-08-19T06:49:56;30.23;;;18.40;;
37047;SDS011;23227;48.780;9.210;2022-08-19T06:53:03;28.43;;;17.33;;
37047;SDS011;23227;48.780;9.210;2022-08-19T06:56:08;31.37;;;18.97;;
37047;SDS011;23227;48.780;9.210;2022-08-19T06:59:11;30.58;;;18.83;;
37047;SDS011;23227;48.780;9.210;2022-08-19T07:02:16;30.97;;;19.10;;
37047;SDS011;23227;48.780;9.210;2022-08-19T07:05:22;32.20;;;18.33;;
37047;SDS011;23227;48.780;9.210;2022-08-19T07:08:25;27.97;;;18.30;;
37047;SDS011;23227;48.780;9.210;2022-08-19T07:11:30;25.27;;;17.93;;
37047;SDS011;23227;48.780;9.210;2022-08-19T07:14:34;25.47;;;17.13;;
37047;SDS011;23227;48.780;9.210;2022-08-19T07:17:38;23.00;;;14.87;;
37047;SDS011;23227;48.780;9.210;2022-08-19T07:20:46;27.47;;;17.80;;
37047;SDS011;23227;48.780;9.210;2022-08-19T07:23:50;28.10;;;17.57;;
37047;SDS011;23227;48.780;9.210;2022-08-19T07:26:54;27.33;;;17.63;;
37047;SDS011;23227;48.780;9.210;2022-08-19T07:30:02;25.77;;;16.80;;
37047;SDS011;23227;48.780;9.210;2022-08-19T07:33:06;26.03;;;16.40;;
37047;SDS011;23227;48.780;9.210;2022-08-19T07:39:15;23.90;;;14.87;;
37047;SDS011;23227;48.780;9.210;2022-08-19T07:42:19;28.03;;;15.43;;
37047;SDS011;23227;48.780;9.210;2022-08-19T07:45:23;24.80;;;15.77;;
37047;SDS011;23227;48.780;9.210;2022-08-19T07:48:26;23.75;;;15.88;;
37047;SDS011;23227;48.780;9.210;2022-08-19T07:51:31;27.70;;;15.87;;
37047;SDS011;23227;48.780;9.210;2022-08-19T07:54:37;29.20;;;17.17;;
37047;SDS011;23227;48.780;9.210;2022-08-19T07:57:42;26.07;;;15.47;;
37047;SDS011;23227;48.780;9.210;2022-08-19T08:00:49;24.53;;;16.33;;
37047;SDS011;23227;48.780;9.210;2022-08-19T08:07:15;27.30;;;17.73;;
37047;SDS011;23227;48.780;9.210;2022-08-19T08:10:36;27.48;;;16.98;;
37047;SDS011;23227;48.780;9.210;2022-08-19T08:13:42;32.37;;;16.03;;
37047;SDS011;23227;48.780;9.210;2022-08-19T08:16:45;28.77;;;16.40;;
37047;SDS011;23227;48.780;9.210;2022-08-19T08:22:53;29.13;;;17.50;;
37047;SDS011;23227;48.780;9.210;2022-08-19T08:26:13;28.50;;;17.77;;
37047;SDS011;23227;48.780;9.210;2022-08-19T08:29:19;30.30;;;18.00;;
37047;SDS011;23227;48.780;9.210;2022-08-19T08:32:26;29.43;;;17.97;;
37047;SDS011;23227;48.780;9.210;2022-08-19T08:35:29;32.67;;;17.17;;
37047;SDS011;23227;48.780;9.210;2022-08-19T08:38:33;29.60;;;15.75;;
37047;SDS011;23227;48.780;9.210;2022-08-19T08:41:44;27.53;;;16.27;;
37047;SDS011;23227;48.780;9.210;2022-08-19T08:44:51;26.50;;;17.73;;
37047;SDS011;23227;48.780;9.210;2022-08-19T08:48:02;24.60;;;16.53;;
37047;SDS011;23227;48.780;9.210;2022-08-19T08:51:25;27.13;;;17.70;;
37047;SDS011;23227;48.780;9.210;2022-08-19T08:54:37;25.53;;;15.60;;
37047;SDS011;23227;48.780;9.210;2022-08-19T08:57:56;28.63;;;17.37;;
37047;SDS011;23227;48.780;9.210;2022-08-19T09:01:04;23.00;;;15.60;;
37047;SDS011;23227;48.780;9.210;2022-08-19T09:04:07;23.97;;;15.77;;
37047;SDS011;23227;48.780;9.210;2022-08-19T09:07:14;24.80;;;16.25;;
37047;SDS011;23227;48.780;9.210;2022-08-19T09:10:39;23.43;;;14.93;;
37047;SDS011;23227;48.780;9.210;2022-08-19T09:13:49;22.97;;;14.50;;
37047;SDS011;23227;48.780;9.210;2022-08-19T09:16:58;21.75;;;12.20;;
37047;SDS011;23227;48.780;9.210;2022-08-19T09:20:03;21.80;;;14.33;;
37047;SDS011;23227;48.780;9.210;2022-08-19T09:23:09;22.77;;;13.30;;
37047;SDS011;23227;48.780;9.210;2022-08-19T09:26:15;24.77;;;15.17;;
37047;SDS011;23227;48.780;9.210;2022-08-19T09:29:20;26.57;;;14.73;;
37047;SDS011;23227;48.780;9.210;2022-08-19T09:32:23;21.08;;;15.07;;
37047;SDS011;23227;48.780;9.210;2022-08-19T09:35:28;23.00;;;14.70;;
37047;SDS011;23227;48.780;9.210;2022-08-19T09:38:31;19.23;;;13.27;;
37047;SDS011;23227;48.780;9.210;2022-08-19T09:41:36;18.55;;;13.88;;
37047;SDS011;23227;48.780;9.210;2022-08-19T09:44:47;38.33;;;25.33;;
37047;SDS011;23227;48.780;9.210;2022-08-19T09:47:50;20.67;;;13.73;;
37047;SDS011;23227;48.780;9.210;2022-08-19T09:51:01;18.20;;;13.00;;
37047;SDS011;23227;48.780;9.210;2022-08-19T09:54:05;21.63;;;14.60;;
37047;SDS011;23227;48.780;9.210;2022-08-19T09:57:13;16.63;;;11.00;;
37047;SDS011;23227;48.780;9.210;2022-08-19T10:00:16;21.20;;;12.30;;
37047;SDS011;23227;48.780;9.210;2022-08-19T10:03:19;16.42;;;10.50;;
37047;SDS011;23227;48.780;9.210;2022-08-19T10:06:26;17.77;;;12.27;;
37047;SDS011;23227;48.780;9.210;2022-08-19T10:09:46;22.83;;;12.63;;
37047;SDS011;23227;48.780;9.210;2022-08-19T10:12:50;21.25;;;11.65;;
37047;SDS011;23227;48.780;9.210;2022-08-19T10:16:01;17.50;;;11.17;;
37047;SDS011;23227;48.780;9.210;2022-08-19T10:19:06;21.47;;;12.47;;
37047;SDS011;23227;48.780;9.210;2022-08-19T10:22:10;15.67;;;11.60;;
37047;SDS011;23227;48.780;9.210;2022-08-19T10:25:15;18.33;;;11.37;;
37047;SDS011;23227;48.780;9.210;2022-08-19T10:28:20;18.93;;;12.30;;
37047;SDS011;23227;48.780;9.210;2022-08-19T10:31:24;19.13;;;12.37;;
37047;SDS011;23227;48.780;9.210;2022-08-19T10:34:48;18.00;;;11.70;;
37047;SDS011;23227;48.780;9.210;2022-08-19T10:37:57;19.97;;;11.67;;
37047;SDS011;23227;48.780;9.210;2022-08-19T10:41:07;17.80;;;11.30;;
37047;SDS011;23227;48.780;9.210;2022-08-19T10:44:12;17.57;;;10.30;;
37047;SDS011;23227;48.780;9.210;2022-08-19T10:47:17;18.23;;;11.50;;
37047;SDS011;23227;48.780;9.210;2022-08-19T10:50:26;27.00;;;11.43;;
37047;SDS011;23227;48.780;9.210;2022-08-19T10:53:47;21.03;;;10.90;;
37047;SDS011;23227;48.780;9.210;2022-08-19T10:56:50;16.92;;;10.18;;
37047;SDS011;23227;48.780;9.210;2022-08-19T10:59:53;14.80;;;9.57;;
37047;SDS011;23227;48.780;9.210;2022-08-19T11:02:56;13.00;;;8.43;;
37047;SDS011;23227;48.780;9.210;2022-08-19T11:05:59;12.82;;;9.00;;
37047;SDS011;23227;48.780;9.210;2022-08-19T11:09:02;13.47;;;8.30;;
37047;SDS011;23227;48.780;9.210;2022-08-19T11:15:13;12.67;;;9.13;;
37047;SDS011;23227;48.780;9.210;2022-08-19T11:18:16;16.83;;;8.80;;
37047;SDS011;23227;48.780;9.210;2022-08-19T11:24:24;14.70;;;7.67;;
37047;SDS011;23227;48.780;9.210;2022-08-19T11:27:28;12.33;;;7.83;;
37047;SDS011;23227;48.780;9.210;2022-08-19T11:30:33;13.67;;;8.07;;
37047;SDS011;23227;48.780;9.210;2022-08-19T11:33:35;11.47;;;7.10;;
37047;SDS011;23227;48.780;9.210;2022-08-19T11:36:39;11.57;;;6.97;;
37047;SDS011;23227;48.780;9.210;2022-08-19T11:39:43;12.63;;;7.00;;
37047;SDS011;23227;48.780;9.210;2022-08-19T11:42:53;10.13;;;6.53;;
37047;SDS011;23227;48.780;9.210;2022-08-19T11:46:03;11.87;;;6.83;;
37047;SDS011;23227;48.780;9.210;2022-08-19T11:49:07;8.13;;;6.10;;
37047;SDS011;23227;48.780;9.210;2022-08-19T11:52:14;11.77;;;7.63;;
37047;SDS011;23227;48.780;9.210;2022-08-19T11:55:17;12.38;;;8.77;;
37047;SDS011;23227;48.780;9.210;2022-08-19T11:58:20;14.82;;;9.23;;
37047;SDS011;23227;48.780;9.210;2022-08-19T12:01:25;17.53;;;11.50;;
37047;SDS011;23227;48.780;9.210;2022-08-19T12:04:28;18.40;;;11.05;;
37047;SDS011;23227;48.780;9.210;2022-08-19T12:07:32;15.60;;;10.13;;
37047;SDS011;23227;48.780;9.210;2022-08-19T12:10:35;18.88;;;10.73;;
37047;SDS011;23227;48.780;9.210;2022-08-19T12:13:38;13.43;;;9.60;;
37047;SDS011;23227;48.780;9.210;2022-08-19T12:16:44;16.05;;;10.00;;
37047;SDS011;23227;48.780;9.210;2022-08-19T12:19:51;16.20;;;9.80;;
37047;SDS011;23227;48.780;9.210;2022-08-19T12:22:55;12.45;;;8.60;;
37047;SDS011;23227;48.780;9.210;2022-08-19T12:25:58;13.75;;;8.77;;
37047;SDS011;23227;48.780;9.210;2022-08-19T12:29:00;14.80;;;9.73;;
37047;SDS011;23227;48.780;9.210;2022-08-19T12:35:12;11.55;;;9.00;;
37047;SDS011;23227;48.780;9.210;2022-08-19T12:41:18;16.65;;;9.88;;
37047;SDS011;23227;48.780;9.210;2022-08-19T12:44:23;20.25;;;9.95;;
37047;SDS011;23227;48.780;9.210;2022-08-19T12:47:31;17.05;;;10.30;;
37047;SDS011;23227;48.780;9.210;2022-08-19T12:50:38;17.30;;;11.95;;
37047;SDS011;23227;48.780;9.210;2022-08-19T12:53:41;20.92;;;12.40;;
37047;SDS011;23227;48.780;9.210;2022-08-19T12:56:45;14.65;;;11.10;;
37047;SDS011;23227;48.780;9.210;2022-08-19T12:59:51;18.73;;;11.82;;
37047;SDS011;23227;48.780;9.210;2022-08-19T13:02:56;16.67;;;10.45;;
37047;SDS011;23227;48.780;9.210;2022-08-19T13:05:59;12.90;;;9.75;;
37047;SDS011;23227;48.780;9.210;2022-08-19T13:12:04;17.92;;;10.27;;
37047;SDS011;23227;48.780;9.210;2022-08-19T13:15:14;13.77;;;10.65;;
37047;SDS011;23227;48.780;9.210;2022-08-19T13:18:25;16.60;;;11.90;;
37047;SDS011;23227;48.780;9.210;2022-08-19T13:21:28;17.35;;;11.90;;
37047;SDS011;23227;48.780;9.210;2022-08-19T13:24:33;16.23;;;11.65;;
37047;SDS011;23227;48.780;9.210;2022-08-19T13:27:38;20.55;;;14.43;;
37047;SDS011;23227;48.780;9.210;2022-08-19T13:30:41;26.20;;;13.93;;
37047;SDS011;23227;48.780;9.210;2022-08-19T13:34:03;21.63;;;15.75;;
37047;SDS011;23227;48.780;9.210;2022-08-19T13:37:06;24.00;;;16.10;;
37047;SDS011;23227;48.780;9.210;2022-08-19T13:40:11;28.60;;;17.47;;
37047;SDS011;23227;48.780;9.210;2022-08-19T13:43:17;29.93;;;19.03;;
37047;SDS011;23227;48.780;9.210;2022-08-19T13:46:23;28.53;;;18.67;;
37047;SDS011;23227;48.780;9.210;2022-08-19T13:49:28;26.50;;;18.67;;
37047;SDS011;23227;48.780;9.210;2022-08-19T13:52:32;30.50;;;18.77;;
37047;SDS011;23227;48.780;9.210;2022-08-19T13:58:38;29.77;;;19.20;;
37047;SDS011;23227;48.780;9.210;2022-08-19T14:01:41;32.35;;;20.30;;
37047;SDS011;23227;48.780;9.210;2022-08-19T14:04:45;32.93;;;20.67;;
37047;SDS011;23227;48.780;9.210;2022-08-19T14:07:48;28.47;;;19.90;;
37047;SDS011;23227;48.780;9.210;2022-08-19T14:10:52;29.70;;;19.93;;
37047;SDS011;23227;48.780;9.210;2022-08-19T14:13:54;30.65;;;19.98;;
37047;SDS011;23227;48.780;9.210;2022-08-19T14:16:57;37.05;;;22.90;;
37047;SDS011;23227;48.780;9.210;2022-08-19T14:20:03;38.40;;;24.53;;
37047;SDS011;23227;48.780;9.210;2022-08-19T14:23:11;32.77;;;21.67;;
37047;SDS011;23227;48.780;9.210;2022-08-19T14:26:15;32.23;;;21.80;;
37047;SDS011;23227;48.780;9.210;2022-08-19T14:29:19;32.33;;;20.83;;
37047;SDS011;23227;48.780;9.210;2022-08-19T14:32:21;30.38;;;19.23;;
37047;SDS011;23227;48.780;9.210;2022-08-19T14:35:30;31.47;;;19.33;;
37047;SDS011;23227;48.780;9.210;2022-08-19T14:38:35;29.93;;;19.00;;
37047;SDS011;23227;48.780;9.210;2022-08-19T14:41:39;26.52;;;18.83;;
37047;SDS011;23227;48.780;9.210;2022-08-19T14:44:43;24.07;;;16.63;;
37047;SDS011;23227;48.780;9.210;2022-08-19T14:47:47;24.67;;;15.37;;
37047;SDS011;23227;48.780;9.210;2022-08-19T14:50:51;24.63;;;15.45;;
37047;SDS011;23227;48.780;9.210;2022-08-19T14:53:54;21.03;;;15.50;;
37047;SDS011;23227;48.780;9.210;2022-08-19T14:56:57;22.60;;;16.20;;
37047;SDS011;23227;48.780;9.210;2022-08-19T15:00:02;27.37;;;16.17;;
37047;SDS011;23227;48.780;9.210;2022-08-19T15:03:06;22.20;;;14.37;;
37047;SDS011;23227;48.780;9.210;2022-08-19T15:06:10;21.90;;;15.43;;
37047;SDS011;23227;48.780;9.210;2022-08-19T15:09:13;17.50;;;13.27;;
37047;SDS011;23227;48.780;9.210;2022-08-19T15:12:16;16.13;;;12.52;;
37047;SDS011;23227;48.780;9.210;2022-08-19T15:15:22;20.37;;;12.47;;
37047;SDS011;23227;48.780;9.210;2022-08-19T15:18:25;14.75;;;11.25;;
37047;SDS011;23227;48.780;9.210;2022-08-19T15:24:33;16.17;;;10.77;;
37047;SDS011;23227;48.780;9.210;2022-08-19T15:27:48;15.40;;;12.05;;
37047;SDS011;23227;48.780;9.210;2022-08-19T15:30:51;15.85;;;12.07;;
37047;SDS011;23227;48.780;9.210;2022-08-19T15:33:55;14.80;;;11.27;;
37047;SDS011;23227;48.780;9.210;2022-08-19T15:37:00;15.57;;;12.13;;
37047;SDS011;23227;48.780;9.210;2022-08-19T15:40:06;19.92;;;12.38;;
37047;SDS011;23227;48.780;9.210;2022-08-19T15:43:10;15.43;;;11.70;;
37047;SDS011;23227;48.780;9.210;2022-08-19T15:49:18;15.90;;;12.65;;
37047;SDS011;23227;48.780;9.210;2022-08-19T15:52:22;19.25;;;11.80;;
37047;SDS011;23227;48.780;9.210;2022-08-19T15:55:29;18.02;;;13.10;;
37047;SDS011;23227;48.780;9.210;2022-08-19T15:58:35;18.10;;;10.75;;
37047;SDS011;23227;48.780;9.210;2022-08-19T16:01:55;14.85;;;10.50;;
37047;SDS011;23227;48.780;9.210;2022-08-19T16:05:18;15.88;;;10.63;;
37047;SDS011;23227;48.780;9.210;2022-08-19T16:08:41;14.75;;;9.95;;
37047;SDS011;23227;48.780;9.210;2022-08-19T16:11:49;16.30;;;11.02;;
37047;SDS011;23227;48.780;9.210;2022-08-19T16:14:57;17.10;;;12.25;;
37047;SDS011;23227;48.780;9.210;2022-08-19T16:18:00;20.98;;;11.85;;
37047;SDS011;23227;48.780;9.210;2022-08-19T16:21:04;13.27;;;11.70;;
37047;SDS011;23227;48.780;9.210;2022-08-19T16:24:10;14.75;;;11.07;;
37047;SDS011;23227;48.780;9.210;2022-08-19T16:27:14;15.88;;;11.98;;
37047;SDS011;23227;48.780;9.210;2022-08-19T16:30:17;15.90;;;11.13;;
37047;SDS011;23227;48.780;9.210;2022-08-19T16:36:23;16.45;;;12.93;;
37047;SDS011;23227;48.780;9.210;2022-08-19T16:39:29;19.70;;;13.93;;
37047;SDS011;23227;48.780;9.210;2022-08-19T16:42:32;17.17;;;13.02;;
37047;SDS011;23227;48.780;9.210;2022-08-19T16:45:36;21.50;;;14.20;;
37047;SDS011;23227;48.780;9.210;2022-08-19T16:48:44;23.67;;;14.60;;
37047;SDS011;23227;48.780;9.210;2022-08-19T16:51:46;18.40;;;13.93;;
37047;SDS011;23227;48.780;9.210;2022-08-19T16:57:53;18.40;;;13.00;;
37047;SDS011;23227;48.780;9.210;2022-08-19T17:04:04;21.53;;;14.43;;
37047;SDS011;23227;48.780;9.210;2022-08-19T17:07:07;19.08;;;13.93;;
37047;SDS011;23227;48.780;9.210;2022-08-19T17:10:12;23.10;;;15.20;;
37047;SDS011;23227;48.780;9.210;2022-08-19T17:13:15;19.97;;;15.30;;
37047;SDS011;23227;48.780;9.210;2022-08-19T17:16:18;20.17;;;14.77;;
37047;SDS011;23227;48.780;9.210;2022-08-19T17:19:24;18.73;;;14.60;;
37047;SDS011;23227;48.780;9.210;2022-08-19T17:22:27;22.02;;;15.18;;
37047;SDS011;23227;48.780;9.210;2022-08-19T17:25:32;19.38;;;14.43;;
37047;SDS011;23227;48.780;9.210;2022-08-19T17:28:35;26.93;;;14.60;;
37047;SDS011;23227;48.780;9.210;2022-08-19T17:31:37;22.40;;;14.95;;
37047;SDS011;23227;48.780;9.210;2022-08-19T17:34:40;22.52;;;16.20;;
37047;SDS011;23227;48.780;9.210;2022-08-19T17:37:44;17.73;;;13.93;;
37047;SDS011;23227;48.780;9.210;2022-08-19T17:40:49;18.65;;;14.95;;
37047;SDS011;23227;48.780;9.210;2022-08-19T17:43:52;18.17;;;13.60;;
37047;SDS011;23227;48.780;9.210;2022-08-19T17:46:55;18.77;;;14.00;;
37047;SDS011;23227;48.780;9.210;2022-08-19T17:49:58;23.45;;;15.15;;
37047;SDS011;23227;48.780;9.210;2022-08-19T17:53:01;19.60;;;15.02;;
37047;SDS011;23227;48.780;9.210;2022-08-19T17:56:07;19.87;;;13.90;;
37047;SDS011;23227;48.780;9.210;2022-08-19T17:59:10;19.73;;;13.80;;
37047;SDS011;23227;48.780;9.210;2022-08-19T18:02:14;26.83;;;13.53;;
37047;SDS011;23227;48.780;9.210;2022-08-19T18:05:23;16.93;;;12.97;;
37047;SDS011;23227;48.780;9.210;2022-08-19T18:08:29;18.23;;;13.00;;
37047;SDS011;23227;48.780;9.210;2022-08-19T18:11:34;21.43;;;13.90;;
37047;SDS011;23227;48.780;9.210;2022-08-19T18:14:37;21.87;;;13.27;;
37047;SDS011;23227;48.780;9.210;2022-08-19T18:17:40;18.57;;;14.40;;
37047;SDS011;23227;48.780;9.210;2022-08-19T18:20:43;20.42;;;15.20;;
37047;SDS011;23227;48.780;9.210;2022-08-19T18:26:50;17.73;;;13.27;;
37047;SDS011;23227;48.780;9.210;2022-08-19T18:29:53;19.50;;;14.37;;
37047;SDS011;23227;48.780;9.210;2022-08-19T18:33:00;18.10;;;12.60;;
37047;SDS011;23227;48.780;9.210;2022-08-19T18:36:09;21.33;;;14.83;;
37047;SDS011;23227;48.780;9.210;2022-08-19T18:39:12;19.35;;;13.82;;
37047;SDS011;23227;48.780;9.210;2022-08-19T18:42:34;20.20;;;14.13;;
37047;SDS011;23227;48.780;9.210;2022-08-19T18:45:54;17.53;;;12.57;;
37047;SDS011;23227;48.780;9.210;2022-08-19T18:49:14;25.63;;;14.27;;
37047;SDS011;23227;48.780;9.210;2022-08-19T18:52:18;21.87;;;14.23;;
37047;SDS011;23227;48.780;9.210;2022-08-19T18:55:22;19.27;;;13.57;;
37047;SDS011;23227;48.780;9.210;2022-08-19T18:58:29;17.80;;;13.43;;
37047;SDS011;23227;48.780;9.210;2022-08-19T19:01:35;21.03;;;14.27;;
37047;SDS011;23227;48.780;9.210;2022-08-19T19:04:39;18.80;;;12.97;;
37047;SDS011;23227;48.780;9.210;2022-08-19T19:07:42;19.55;;;13.82;;
37047;SDS011;23227;48.780;9.210;2022-08-19T19:10:45;26.85;;;14.95;;